createdAt,value
2018-11-23T00:04:09.350Z,30.53
2018-11-23T00:09:22.698Z,30.80
2018-11-23T00:14:36.057Z,29.87
2018-11-23T00:19:49.459Z,32.40
2018-11-23T00:25:02.811Z,32.37
2018-11-23T00:30:20.687Z,30.00
2018-11-23T00:35:34.034Z,32.50
2018-11-23T00:40:47.448Z,31.83
2018-11-23T00:46:00.817Z,32.17
2018-11-23T00:51:14.252Z,30.43
2018-11-23T00:56:27.629Z,32.93
2018-11-23T01:02:00.347Z,31.93
2018-11-23T01:07:13.831Z,31.47
2018-11-23T01:12:27.268Z,36.37
2018-11-23T01:17:40.659Z,32.33
2018-11-23T01:22:54.745Z,31.73
2018-11-23T01:28:08.111Z,31.17
2018-11-23T01:33:21.472Z,34.37
2018-11-23T01:38:34.850Z,33.27
2018-11-23T01:43:48.236Z,34.30
2018-11-23T01:49:01.617Z,33.73
2018-11-23T01:54:15.000Z,33.37
2018-11-23T01:59:28.372Z,34.03
2018-11-23T02:04:41.756Z,32.73
2018-11-23T02:09:55.216Z,31.67
2018-11-23T02:15:13.103Z,31.77
2018-11-23T02:20:26.484Z,30.43
2018-11-23T02:25:39.855Z,29.97
2018-11-23T02:30:53.224Z,31.40
2018-11-23T02:36:07.670Z,32.83
2018-11-23T02:41:21.018Z,31.17
2018-11-23T02:46:34.365Z,33.20
2018-11-23T02:51:48.519Z,31.80
2018-11-23T02:57:01.919Z,33.93
2018-11-23T03:02:15.290Z,34.30
2018-11-23T03:07:28.677Z,33.43
2018-11-23T03:12:42.457Z,34.80
2018-11-23T03:17:55.818Z,34.03
2018-11-23T03:23:09.176Z,33.50
2018-11-23T03:28:22.553Z,33.67
2018-11-23T03:33:35.931Z,33.07
2018-11-23T03:38:49.508Z,33.03
2018-11-23T03:44:02.936Z,35.37
2018-11-23T03:49:16.348Z,32.23
2018-11-23T03:54:29.712Z,33.07
2018-11-23T03:59:43.099Z,30.80
2018-11-23T04:04:56.818Z,31.83
2018-11-23T04:10:11.819Z,37.17
2018-11-23T04:15:25.219Z,34.53
2018-11-23T04:20:38.599Z,31.20
2018-11-23T04:25:51.974Z,34.37
2018-11-23T04:31:05.765Z,31.03
2018-11-23T04:36:19.151Z,32.77
2018-11-23T04:41:32.836Z,32.80
2018-11-23T04:46:46.475Z,32.33
2018-11-23T04:51:59.828Z,33.23
2018-11-23T04:57:13.214Z,32.87
2018-11-23T05:02:26.769Z,34.90
2018-11-23T05:07:40.517Z,32.10
2018-11-23T05:12:53.892Z,32.87
2018-11-23T05:18:07.251Z,37.00
2018-11-23T05:23:20.618Z,33.10
2018-11-23T05:28:33.992Z,37.03
2018-11-23T05:33:47.621Z,34.83
2018-11-23T05:39:00.613Z,32.03
2018-11-23T05:44:13.647Z,33.43
2018-11-23T05:49:27.047Z,34.87
2018-11-23T05:54:40.397Z,35.13
2018-11-23T05:59:53.757Z,33.50
2018-11-23T06:05:07.788Z,32.17
2018-11-23T06:10:21.625Z,33.97
2018-11-23T06:15:34.998Z,34.80
2018-11-23T06:20:48.351Z,33.67
2018-11-23T06:26:22.907Z,31.60
2018-11-23T06:31:36.321Z,37.43
2018-11-23T06:36:49.689Z,35.47
2018-11-23T06:42:03.047Z,33.83
2018-11-23T06:47:16.393Z,36.40
2018-11-23T06:52:29.784Z,34.50
2018-11-23T06:57:43.137Z,35.63
2018-11-23T07:02:59.220Z,34.13
2018-11-23T07:08:10.945Z,38.03
2018-11-23T07:13:24.293Z,37.13
2018-11-23T07:18:37.693Z,37.97
2018-11-23T07:23:51.067Z,36.00
2018-11-23T07:29:04.947Z,37.10
2018-11-23T07:34:18.311Z,37.00
2018-11-23T07:40:09.968Z,34.53
2018-11-23T07:45:23.385Z,34.33
2018-11-23T07:50:36.814Z,35.50
2018-11-23T07:55:50.177Z,33.93
2018-11-23T08:01:03.912Z,36.13
2018-11-23T08:06:17.295Z,32.80
2018-11-23T08:11:30.716Z,36.03
2018-11-23T08:16:44.068Z,31.07
2018-11-23T08:21:57.540Z,33.67
2018-11-23T08:27:10.909Z,32.77
2018-11-23T08:32:24.340Z,32.70
2018-11-23T08:37:37.972Z,32.57
2018-11-23T08:42:52.057Z,34.20
2018-11-23T08:48:05.849Z,33.13
2018-11-23T08:53:19.303Z,33.43
2018-11-23T08:58:34.186Z,33.23
2018-11-23T09:03:46.100Z,35.33
2018-11-23T09:08:59.447Z,32.97
2018-11-23T09:14:12.822Z,32.77
2018-11-23T09:19:26.206Z,32.80
2018-11-23T09:24:20.443Z,32.47
2018-11-23T09:29:14.692Z,34.07
2018-11-23T09:34:08.885Z,33.97
2018-11-23T09:39:04.788Z,32.47
2018-11-23T09:43:59.019Z,33.30
2018-11-23T09:48:53.242Z,33.07
2018-11-23T09:53:47.461Z,31.07
2018-11-23T09:58:43.608Z,32.00
2018-11-23T10:03:35.997Z,33.83
2018-11-23T10:08:33.501Z,32.20
2018-11-23T10:13:24.454Z,32.77
2018-11-23T10:18:18.689Z,31.73
2018-11-23T10:23:12.953Z,33.27
2018-11-23T10:28:07.250Z,30.63
2018-11-23T10:33:04.268Z,33.70
2018-11-23T10:37:59.755Z,33.27
2018-11-23T10:42:53.960Z,31.70
2018-11-23T10:47:48.772Z,31.60
2018-11-23T10:52:43.008Z,32.70
2018-11-23T10:57:37.258Z,28.43
2018-11-23T11:02:44.325Z,28.50
2018-11-23T11:07:38.526Z,28.73
2018-11-23T11:12:32.757Z,28.27
2018-11-23T11:17:27.016Z,30.73
2018-11-23T11:22:21.258Z,31.53
2018-11-23T11:27:15.473Z,29.77
2018-11-23T11:32:09.721Z,30.57
2018-11-23T11:37:03.944Z,30.00
2018-11-23T11:41:58.140Z,27.27
2018-11-23T11:46:52.415Z,26.83
2018-11-23T11:51:46.585Z,27.23
2018-11-23T11:56:40.871Z,27.73
2018-11-23T12:01:35.068Z,28.30
2018-11-23T12:06:29.286Z,27.83
2018-11-23T12:11:23.491Z,24.00
2018-11-23T12:16:17.815Z,27.80
2018-11-23T12:21:12.127Z,29.20
2018-11-23T12:26:06.547Z,25.77
2018-11-23T12:31:00.779Z,27.87
2018-11-23T12:35:55.042Z,26.53
2018-11-23T12:40:49.271Z,28.10
2018-11-23T12:45:43.513Z,23.23
2018-11-23T12:50:37.763Z,25.40
2018-11-23T12:55:32.048Z,25.83
2018-11-23T13:00:27.470Z,24.93
2018-11-23T13:05:22.629Z,24.83
2018-11-23T13:10:16.931Z,25.23
2018-11-23T13:15:11.177Z,26.00
2018-11-23T13:20:12.105Z,24.10
2018-11-23T13:25:09.981Z,23.43
2018-11-23T13:30:04.505Z,23.10
2018-11-23T13:34:58.747Z,25.40
2018-11-23T13:39:53.062Z,24.13
2018-11-23T13:44:47.276Z,23.90
2018-11-23T13:49:41.647Z,24.93
2018-11-23T13:54:35.856Z,22.20
2018-11-23T13:59:30.156Z,24.00
2018-11-23T14:04:24.406Z,22.20
2018-11-23T14:09:19.028Z,22.00
2018-11-23T14:14:13.240Z,23.83
2018-11-23T14:19:07.486Z,25.17
2018-11-23T14:24:02.195Z,20.97
2018-11-23T14:28:56.397Z,20.70
2018-11-23T14:33:50.665Z,20.57
2018-11-23T14:38:44.867Z,21.53
2018-11-23T14:44:14.873Z,22.73
2018-11-23T14:49:08.156Z,23.85
2018-11-23T14:54:01.425Z,21.27
2018-11-23T14:58:54.730Z,21.10
2018-11-23T15:03:48.025Z,20.45
2018-11-23T15:08:41.283Z,23.70
2018-11-23T15:13:34.565Z,26.15
2018-11-23T15:18:27.958Z,23.95
2018-11-23T15:23:21.347Z,21.33
2018-11-23T15:28:15.074Z,23.35
2018-11-23T15:33:09.760Z,23.30
2018-11-23T15:38:06.057Z,24.95
2018-11-23T15:42:58.183Z,24.37
2018-11-23T15:47:51.695Z,23.52
2018-11-23T15:52:45.628Z,23.27
2018-11-23T15:57:39.138Z,22.52
2018-11-23T16:02:32.455Z,23.38
2018-11-23T16:07:25.712Z,27.87
2018-11-23T16:12:19.028Z,22.37
2018-11-23T16:17:12.306Z,22.25
2018-11-23T16:22:05.587Z,20.55
2018-11-23T16:26:58.896Z,24.67
2018-11-23T16:31:52.183Z,21.80
2018-11-23T16:36:45.498Z,27.95
2018-11-23T16:41:38.839Z,23.32
2018-11-23T16:46:32.114Z,25.90
2018-11-23T16:51:25.416Z,23.50
2018-11-23T16:56:18.724Z,21.12
2018-11-23T17:01:12.044Z,20.02
2018-11-23T17:06:05.666Z,21.97
2018-11-23T17:10:58.905Z,23.52
2018-11-23T17:15:52.317Z,23.83
2018-11-23T17:20:45.591Z,24.05
2018-11-23T17:25:38.882Z,21.40
2018-11-23T17:30:32.899Z,22.00
2018-11-23T17:35:26.558Z,20.77
2018-11-23T17:40:21.408Z,25.25
2018-11-23T17:45:18.157Z,21.00
2018-11-23T17:50:15.060Z,22.48
2018-11-23T17:55:09.455Z,23.77
2018-11-23T18:00:03.545Z,24.20
2018-11-23T18:04:56.825Z,23.02
2018-11-23T18:09:50.103Z,22.90
2018-11-23T18:14:43.448Z,24.35
2018-11-23T18:19:36.740Z,23.37
2018-11-23T18:24:30.042Z,25.43
2018-11-23T18:29:23.316Z,25.50
2018-11-23T18:34:16.614Z,24.15
2018-11-23T18:39:09.936Z,24.18
2018-11-23T18:44:03.254Z,22.67
2018-11-23T18:48:56.501Z,24.02
2018-11-23T18:53:49.808Z,23.05
2018-11-23T18:58:43.087Z,25.35
2018-11-23T19:03:36.369Z,22.67
2018-11-23T19:08:29.653Z,21.27
2018-11-23T19:13:22.954Z,21.73
2018-11-23T19:18:16.280Z,24.05
2018-11-23T19:23:09.573Z,23.27
2018-11-23T19:28:02.830Z,25.08
2018-11-23T19:32:56.106Z,22.80
2018-11-23T19:37:49.425Z,25.10
2018-11-23T19:42:43.646Z,22.37
2018-11-23T19:47:36.993Z,23.25
2018-11-23T19:52:30.238Z,22.13
2018-11-23T19:57:23.539Z,25.80
2018-11-23T20:02:16.825Z,24.40
2018-11-23T20:07:10.144Z,24.10
2018-11-23T20:12:03.443Z,23.62
2018-11-23T20:16:56.782Z,23.38
2018-11-23T20:21:50.122Z,22.95
2018-11-23T20:26:43.408Z,24.57
2018-11-23T20:31:36.715Z,24.25
2018-11-23T20:36:30.005Z,23.65
2018-11-23T20:41:23.300Z,26.73
2018-11-23T20:46:16.569Z,26.77
2018-11-23T20:51:09.889Z,23.77
2018-11-23T20:56:03.244Z,24.85
2018-11-23T21:00:56.549Z,21.25
2018-11-23T21:05:49.862Z,25.08
2018-11-23T21:10:43.082Z,26.48
2018-11-23T21:15:36.365Z,23.47
2018-11-23T21:20:29.658Z,24.27
2018-11-23T21:25:22.974Z,24.00
2018-11-23T21:30:20.910Z,24.35
2018-11-23T21:35:14.378Z,24.00
2018-11-23T21:40:12.241Z,22.98
2018-11-23T21:45:08.772Z,24.25
2018-11-23T21:50:02.130Z,23.22
2018-11-23T21:54:55.452Z,23.77
2018-11-23T21:59:48.798Z,23.25
2018-11-23T22:04:42.116Z,22.67
2018-11-23T22:09:35.436Z,21.55
2018-11-23T22:14:28.724Z,20.75
2018-11-23T22:19:21.980Z,21.55
2018-11-23T22:24:15.287Z,22.85
2018-11-23T22:29:08.595Z,22.07
2018-11-23T22:34:01.879Z,23.87
2018-11-23T22:38:55.174Z,21.60
2018-11-23T22:43:48.442Z,24.72
2018-11-23T22:48:41.747Z,21.73
2018-11-23T22:53:35.062Z,25.50
2018-11-23T22:58:29.415Z,24.55
2018-11-23T23:03:21.620Z,23.42
2018-11-23T23:08:14.923Z,24.27
2018-11-23T23:13:08.215Z,27.82
2018-11-23T23:18:01.579Z,25.37
2018-11-23T23:22:55.696Z,24.70
2018-11-23T23:27:49.055Z,23.70
2018-11-23T23:32:42.618Z,25.97
2018-11-23T23:37:36.051Z,21.97
2018-11-23T23:42:29.399Z,24.23
2018-11-23T23:47:22.774Z,26.95
2018-11-23T23:52:16.170Z,23.42
2018-11-23T23:57:09.500Z,22.93
